createdAt,value
2022-12-17T00:00:47.993Z,16.90
2022-12-17T00:04:09.215Z,16.67
2022-12-17T00:07:31.311Z,16.83
2022-12-17T00:10:52.549Z,17.03
2022-12-17T00:14:14.031Z,17.50
2022-12-17T00:17:35.279Z,17.85
2022-12-17T00:20:56.809Z,17.77
2022-12-17T00:24:19.554Z,16.10
2022-12-17T00:27:40.926Z,14.97
2022-12-17T00:31:02.299Z,18.05
2022-12-17T00:34:25.510Z,17.27
2022-12-17T00:37:48.405Z,15.98
2022-12-17T00:41:10.999Z,14.80
2022-12-17T00:44:32.234Z,14.63
2022-12-17T00:47:54.487Z,16.17
2022-12-17T00:51:15.891Z,15.73
2022-12-17T00:54:37.252Z,15.13
2022-12-17T00:57:59.252Z,16.55
2022-12-17T01:01:21.133Z,16.03
2022-12-17T01:04:42.604Z,15.43
2022-12-17T01:08:04.079Z,15.75
2022-12-17T01:11:28.271Z,16.38
2022-12-17T01:14:49.387Z,15.05
2022-12-17T01:18:12.282Z,16.73
2022-12-17T01:21:33.434Z,15.85
2022-12-17T01:24:54.414Z,15.85
2022-12-17T01:28:17.669Z,14.60
2022-12-17T01:31:40.287Z,15.27
2022-12-17T01:35:01.679Z,14.40
2022-12-17T01:38:36.828Z,15.75
2022-12-17T01:41:58.214Z,16.05
2022-12-17T01:45:20.916Z,14.82
2022-12-17T01:48:52.689Z,14.73
2022-12-17T01:52:14.806Z,14.87
2022-12-17T01:55:36.060Z,14.63
2022-12-17T01:58:58.691Z,14.88
2022-12-17T02:02:20.284Z,14.73
2022-12-17T02:05:59.817Z,14.38
2022-12-17T02:09:39.871Z,14.53
2022-12-17T02:13:11.672Z,14.77
2022-12-17T02:16:45.361Z,14.15
2022-12-17T02:20:33.231Z,14.63
2022-12-17T02:23:54.360Z,16.65
2022-12-17T02:27:23.009Z,13.77
2022-12-17T02:30:44.642Z,13.68
2022-12-17T02:34:07.688Z,13.50
2022-12-17T02:37:28.865Z,14.05
2022-12-17T02:40:52.201Z,14.23
2022-12-17T02:44:14.523Z,13.53
2022-12-17T02:47:37.441Z,12.50
2022-12-17T02:51:00.529Z,12.98
2022-12-17T02:54:23.264Z,14.48
2022-12-17T02:57:46.494Z,15.05
2022-12-17T03:01:11.408Z,13.67
2022-12-17T03:04:32.889Z,13.57
2022-12-17T03:07:54.610Z,14.60
2022-12-17T03:11:15.808Z,13.75
2022-12-17T03:14:37.276Z,14.27
2022-12-17T03:17:58.526Z,13.47
2022-12-17T03:21:19.871Z,14.23
2022-12-17T03:24:40.688Z,13.65
2022-12-17T03:28:02.067Z,14.95
2022-12-17T03:31:23.415Z,12.57
2022-12-17T03:34:44.950Z,12.40
2022-12-17T03:38:06.536Z,12.77
2022-12-17T03:41:27.960Z,13.70
2022-12-17T03:44:49.291Z,13.02
2022-12-17T03:48:10.571Z,13.55
2022-12-17T03:51:31.378Z,12.70
2022-12-17T03:54:52.407Z,13.32
2022-12-17T03:58:14.904Z,13.52
2022-12-17T04:01:36.646Z,12.48
2022-12-17T04:04:58.066Z,12.85
2022-12-17T04:08:19.224Z,12.37
2022-12-17T04:11:40.461Z,12.52
2022-12-17T04:15:02.480Z,12.00
2022-12-17T04:18:23.861Z,12.90
2022-12-17T04:21:45.171Z,11.60
2022-12-17T04:25:06.226Z,11.27
2022-12-17T04:28:27.587Z,12.60
2022-12-17T04:31:49.031Z,13.15
2022-12-17T04:35:26.754Z,13.25
2022-12-17T04:38:48.193Z,12.07
2022-12-17T04:42:10.968Z,11.77
2022-12-17T04:45:32.187Z,13.15
2022-12-17T04:48:54.853Z,12.70
2022-12-17T04:52:15.867Z,13.02
2022-12-17T04:55:36.707Z,12.90
2022-12-17T04:58:57.633Z,11.70
2022-12-17T05:02:18.743Z,10.43
2022-12-17T05:05:39.982Z,11.82
2022-12-17T05:09:01.359Z,10.52
2022-12-17T05:12:23.097Z,12.32
2022-12-17T05:15:48.358Z,11.67
2022-12-17T05:19:12.980Z,10.48
2022-12-17T05:22:34.244Z,12.10
2022-12-17T05:25:55.440Z,10.88
2022-12-17T05:29:16.847Z,11.40
2022-12-17T05:32:38.156Z,11.60
2022-12-17T05:35:59.930Z,12.05
2022-12-17T05:39:21.295Z,11.00
2022-12-17T05:42:42.682Z,12.23
2022-12-17T05:46:05.121Z,11.00
2022-12-17T05:49:26.558Z,11.40
2022-12-17T05:52:47.743Z,12.18
2022-12-17T05:56:12.405Z,11.02
2022-12-17T05:59:33.955Z,10.57
2022-12-17T06:02:55.300Z,11.52
2022-12-17T06:06:17.597Z,11.10
2022-12-17T06:09:39.096Z,10.40
2022-12-17T06:13:00.525Z,10.95
2022-12-17T06:16:22.055Z,10.70
2022-12-17T06:19:43.016Z,10.85
2022-12-17T06:23:20.907Z,11.50
2022-12-17T06:26:42.187Z,11.45
2022-12-17T06:30:04.622Z,11.07
2022-12-17T06:33:28.584Z,10.40
2022-12-17T06:36:49.634Z,10.95
2022-12-17T06:40:11.052Z,11.37
2022-12-17T06:43:32.503Z,10.32
2022-12-17T06:46:54.097Z,10.50
2022-12-17T06:50:15.577Z,9.73
2022-12-17T06:53:37.381Z,11.15
2022-12-17T06:56:58.947Z,9.73
2022-12-17T07:00:20.648Z,10.80
2022-12-17T07:03:41.705Z,10.63
2022-12-17T07:07:03.312Z,10.77
2022-12-17T07:10:25.172Z,10.70
2022-12-17T07:13:48.940Z,10.80
2022-12-17T07:17:11.510Z,10.80
2022-12-17T07:20:32.588Z,10.15
2022-12-17T07:23:53.653Z,12.00
2022-12-17T07:27:15.451Z,11.07
2022-12-17T07:30:37.403Z,10.23
2022-12-17T07:33:58.472Z,10.23
2022-12-17T07:37:20.765Z,11.93
2022-12-17T07:40:42.408Z,10.65
2022-12-17T07:44:03.836Z,9.75
2022-12-17T07:47:25.416Z,11.40
2022-12-17T07:50:46.884Z,10.50
2022-12-17T07:54:08.229Z,10.88
2022-12-17T07:57:29.232Z,11.70
2022-12-17T08:00:50.780Z,11.88
2022-12-17T08:04:12.128Z,10.43
2022-12-17T08:07:32.894Z,11.23
2022-12-17T08:10:54.507Z,11.10
2022-12-17T08:14:15.873Z,11.07
2022-12-17T08:17:38.079Z,11.15
2022-12-17T08:20:59.347Z,10.43
2022-12-17T08:24:20.549Z,10.02
2022-12-17T08:27:41.897Z,12.15
2022-12-17T08:31:07.889Z,12.32
2022-12-17T08:34:42.983Z,12.15
2022-12-17T08:38:04.471Z,11.70
2022-12-17T08:41:26.460Z,11.95
2022-12-17T08:44:47.298Z,12.68
2022-12-17T08:48:08.623Z,11.05
2022-12-17T08:51:32.180Z,10.95
2022-12-17T08:54:53.417Z,11.90
2022-12-17T08:58:17.974Z,11.70
2022-12-17T09:01:39.082Z,11.90
2022-12-17T09:05:00.392Z,12.20
2022-12-17T09:08:24.982Z,13.82
2022-12-17T09:11:46.177Z,12.27
2022-12-17T09:15:08.255Z,11.73
2022-12-17T09:18:29.718Z,13.02
2022-12-17T09:21:50.664Z,12.35
2022-12-17T09:25:12.259Z,12.77
2022-12-17T09:28:33.531Z,12.37
2022-12-17T09:31:54.882Z,12.60
2022-12-17T09:35:16.129Z,12.10
2022-12-17T09:38:38.215Z,12.23
2022-12-17T09:42:14.868Z,13.32
2022-12-17T09:46:08.061Z,11.90
2022-12-17T09:49:44.915Z,13.30
2022-12-17T09:53:06.356Z,13.57
2022-12-17T09:56:30.803Z,12.73
2022-12-17T09:59:54.201Z,14.65
2022-12-17T10:03:15.753Z,13.30
2022-12-17T10:06:43.000Z,12.90
2022-12-17T10:10:07.610Z,13.73
2022-12-17T10:13:42.197Z,13.25
2022-12-17T10:17:10.097Z,13.55
2022-12-17T10:20:49.764Z,13.77
2022-12-17T10:24:23.359Z,15.38
2022-12-17T10:27:45.276Z,14.63
2022-12-17T10:31:06.958Z,12.95
2022-12-17T10:34:35.239Z,14.48
2022-12-17T10:37:56.318Z,14.20
2022-12-17T10:41:18.770Z,12.82
2022-12-17T10:44:56.799Z,14.75
2022-12-17T10:48:17.878Z,13.43
2022-12-17T10:51:52.334Z,14.23
2022-12-17T10:55:16.171Z,14.27
2022-12-17T10:58:44.272Z,15.40
2022-12-17T11:02:06.370Z,15.02
2022-12-17T11:05:42.573Z,13.00
2022-12-17T11:09:04.175Z,15.93
2022-12-17T11:12:30.794Z,13.53
2022-12-17T11:16:01.405Z,15.52
2022-12-17T11:19:29.680Z,14.45
2022-12-17T11:23:01.352Z,13.60
2022-12-17T11:26:30.944Z,16.50
2022-12-17T11:29:52.231Z,16.07
2022-12-17T11:33:32.566Z,14.70
2022-12-17T11:37:29.601Z,14.93
2022-12-17T11:41:03.961Z,15.15
2022-12-17T11:44:27.972Z,15.15
2022-12-17T11:48:12.399Z,15.13
2022-12-17T11:51:50.056Z,16.63
2022-12-17T11:55:49.284Z,14.82
2022-12-17T11:59:13.542Z,15.82
2022-12-17T12:02:46.664Z,16.65
2022-12-17T12:06:17.526Z,16.53
2022-12-17T12:09:42.905Z,14.80
2022-12-17T12:13:34.263Z,14.32
2022-12-17T12:17:37.401Z,15.20
2022-12-17T12:21:22.718Z,17.50
2022-12-17T12:25:07.023Z,16.90
2022-12-17T12:28:49.559Z,15.40
2022-12-17T12:32:44.822Z,14.88
2022-12-17T12:36:06.478Z,16.23
2022-12-17T12:39:32.342Z,16.00
2022-12-17T12:43:08.828Z,16.77
2022-12-17T12:46:45.308Z,17.02
2022-12-17T12:50:30.371Z,15.93
2022-12-17T12:53:51.856Z,17.48
2022-12-17T12:57:13.172Z,16.58
2022-12-17T13:01:00.444Z,16.47
2022-12-17T13:04:40.479Z,17.05
2022-12-17T13:07:43.138Z,16.60
2022-12-17T13:10:46.679Z,14.73
2022-12-17T13:13:56.240Z,18.00
2022-12-17T13:17:07.226Z,16.23
2022-12-17T13:20:24.286Z,16.52
2022-12-17T13:23:27.845Z,17.23
2022-12-17T13:26:43.195Z,17.60
2022-12-17T13:29:45.873Z,16.85
2022-12-17T13:33:15.207Z,15.23
2022-12-17T13:36:39.679Z,16.02
2022-12-17T13:39:51.892Z,16.40
2022-12-17T13:42:54.557Z,17.38
2022-12-17T13:45:57.586Z,17.65
2022-12-17T13:49:06.075Z,15.83
2022-12-17T13:52:18.225Z,16.95
2022-12-17T13:55:26.332Z,17.70
2022-12-17T13:58:32.970Z,17.48
2022-12-17T14:01:45.350Z,16.85
2022-12-17T14:04:53.731Z,18.13
2022-12-17T14:08:04.569Z,16.38
2022-12-17T14:11:26.326Z,16.75
2022-12-17T14:14:38.433Z,16.73
2022-12-17T14:17:44.781Z,16.58
2022-12-17T14:20:49.449Z,18.57
2022-12-17T14:23:52.987Z,16.95
2022-12-17T14:26:58.697Z,17.65
2022-12-17T14:30:03.316Z,17.45
2022-12-17T14:33:30.195Z,17.02
2022-12-17T14:36:34.772Z,18.00
2022-12-17T14:39:43.832Z,15.90
2022-12-17T14:42:46.811Z,17.95
2022-12-17T14:46:16.110Z,17.20
2022-12-17T14:49:21.169Z,17.20
2022-12-17T14:52:44.984Z,19.03
2022-12-17T14:55:57.343Z,18.33
2022-12-17T14:58:59.928Z,17.13
2022-12-17T15:02:14.530Z,17.63
2022-12-17T15:05:17.739Z,19.15
2022-12-17T15:08:20.845Z,18.83
2022-12-17T15:11:24.258Z,17.08
2022-12-17T15:14:26.857Z,17.80
2022-12-17T15:17:29.474Z,17.38
2022-12-17T15:20:32.191Z,16.92
2022-12-17T15:23:47.271Z,17.90
2022-12-17T15:26:50.704Z,18.80
2022-12-17T15:29:53.449Z,18.35
2022-12-17T15:32:56.152Z,18.30
2022-12-17T15:36:00.398Z,17.75
2022-12-17T15:39:06.296Z,17.60
2022-12-17T15:42:28.738Z,19.60
2022-12-17T15:45:31.998Z,17.95
2022-12-17T15:48:35.083Z,20.58
2022-12-17T15:51:38.254Z,18.67
2022-12-17T15:54:43.799Z,17.10
2022-12-17T15:57:47.048Z,19.17
2022-12-17T16:00:49.879Z,19.15
2022-12-17T16:03:52.527Z,17.75
2022-12-17T16:06:55.519Z,18.60
2022-12-17T16:10:04.513Z,16.37
2022-12-17T16:13:08.167Z,18.17
2022-12-17T16:16:11.429Z,17.77
2022-12-17T16:19:14.531Z,18.42
2022-12-17T16:22:17.946Z,18.30
2022-12-17T16:25:23.473Z,19.87
2022-12-17T16:28:27.932Z,17.88
2022-12-17T16:31:31.017Z,18.52
2022-12-17T16:34:34.877Z,17.83
2022-12-17T16:37:37.514Z,17.67
2022-12-17T16:40:40.416Z,17.83
2022-12-17T16:43:43.944Z,19.52
2022-12-17T16:46:46.951Z,17.58
2022-12-17T16:49:52.423Z,19.33
2022-12-17T16:52:55.817Z,19.20
2022-12-17T16:56:00.222Z,18.50
2022-12-17T16:59:05.154Z,18.38
2022-12-17T17:02:13.705Z,19.40
2022-12-17T17:05:17.126Z,18.05
2022-12-17T17:08:19.805Z,19.27
2022-12-17T17:11:25.259Z,18.00
2022-12-17T17:14:28.148Z,19.77
2022-12-17T17:17:54.892Z,18.90
2022-12-17T17:20:53.652Z,19.45
2022-12-17T17:24:01.911Z,19.33
2022-12-17T17:27:04.574Z,17.77
2022-12-17T17:30:07.873Z,19.52
2022-12-17T17:33:10.515Z,18.85
2022-12-17T17:36:24.863Z,19.85
2022-12-17T17:39:27.771Z,19.52
2022-12-17T17:42:30.358Z,20.03
2022-12-17T17:45:34.057Z,19.40
2022-12-17T17:48:37.412Z,20.75
2022-12-17T17:55:06.240Z,17.55
2022-12-17T17:58:08.899Z,18.67
2022-12-17T18:01:13.731Z,18.90
2022-12-17T18:04:22.081Z,19.85
2022-12-17T18:07:25.915Z,18.20
2022-12-17T18:10:29.491Z,19.55
2022-12-17T18:13:51.112Z,18.33
2022-12-17T18:16:53.757Z,19.45
2022-12-17T18:19:56.712Z,19.38
2022-12-17T18:22:59.338Z,18.35
2022-12-17T18:26:17.016Z,18.75
2022-12-17T18:29:28.884Z,19.40
2022-12-17T18:32:31.752Z,19.08
2022-12-17T18:35:34.447Z,19.48
2022-12-17T18:38:38.144Z,21.20
2022-12-17T18:42:01.198Z,21.13
2022-12-17T18:45:04.360Z,19.20
2022-12-17T18:48:07.653Z,19.80
2022-12-17T18:51:12.390Z,19.33
2022-12-17T18:54:22.234Z,19.27
2022-12-17T18:57:25.225Z,21.08
2022-12-17T19:00:28.110Z,19.63
2022-12-17T19:03:31.163Z,19.80
2022-12-17T19:06:35.344Z,18.77
2022-12-17T19:09:40.607Z,18.25
2022-12-17T19:12:44.804Z,19.48
2022-12-17T19:15:48.152Z,17.47
2022-12-17T19:18:59.823Z,19.92
2022-12-17T19:22:03.865Z,19.05
2022-12-17T19:25:07.138Z,19.63
2022-12-17T19:28:10.511Z,19.27
2022-12-17T19:31:14.254Z,20.90
2022-12-17T19:34:21.143Z,21.75
2022-12-17T19:37:23.757Z,21.40
2022-12-17T19:40:27.164Z,19.92
2022-12-17T19:43:31.712Z,19.60
2022-12-17T19:46:35.969Z,18.80
2022-12-17T19:49:39.370Z,20.17
2022-12-17T19:52:42.282Z,21.42
2022-12-17T19:55:44.857Z,19.50
2022-12-17T19:58:53.058Z,19.65
2022-12-17T20:01:56.504Z,19.33
2022-12-17T20:04:59.756Z,20.30
2022-12-17T20:08:02.594Z,20.08
2022-12-17T20:11:30.216Z,20.17
2022-12-17T20:14:34.667Z,19.75
2022-12-17T20:17:37.615Z,20.07
2022-12-17T20:20:42.201Z,21.50
2022-12-17T20:23:52.169Z,20.33
2022-12-17T20:26:55.735Z,20.95
2022-12-17T20:29:59.274Z,21.52
2022-12-17T20:33:02.178Z,20.77
2022-12-17T20:36:06.068Z,20.27
2022-12-17T20:39:10.473Z,19.95
2022-12-17T20:42:13.312Z,21.20
2022-12-17T20:45:16.073Z,21.95
2022-12-17T20:48:19.515Z,20.87
2022-12-17T20:51:24.467Z,19.65
2022-12-17T20:54:28.498Z,19.88
2022-12-17T20:57:31.615Z,19.67
2022-12-17T21:00:35.564Z,21.75
2022-12-17T21:03:39.378Z,19.97
2022-12-17T21:06:45.896Z,22.60
2022-12-17T21:09:48.593Z,19.52
2022-12-17T21:13:09.848Z,21.35
2022-12-17T21:16:17.660Z,21.15
2022-12-17T21:19:21.028Z,21.23
2022-12-17T21:22:24.036Z,22.98
2022-12-17T21:25:26.593Z,20.27
2022-12-17T21:28:30.716Z,20.08
2022-12-17T21:31:40.468Z,22.50
2022-12-17T21:34:43.348Z,20.87
2022-12-17T21:37:46.117Z,20.85
2022-12-17T21:40:49.500Z,22.85
2022-12-17T21:43:57.699Z,19.40
2022-12-17T21:47:00.562Z,20.25
2022-12-17T21:50:03.389Z,20.43
2022-12-17T21:53:06.130Z,20.27
2022-12-17T21:56:14.348Z,24.83
2022-12-17T21:59:17.411Z,21.50
2022-12-17T22:02:20.209Z,20.17
2022-12-17T22:05:23.273Z,20.47
2022-12-17T22:08:25.821Z,21.88
2022-12-17T22:11:28.954Z,22.38
2022-12-17T22:14:31.872Z,21.08
2022-12-17T22:17:35.691Z,21.25
2022-12-17T22:20:38.654Z,21.63
2022-12-17T22:23:43.246Z,20.08
2022-12-17T22:26:47.006Z,21.08
2022-12-17T22:30:09.617Z,21.30
2022-12-17T22:33:17.885Z,21.52
2022-12-17T22:37:49.080Z,21.07
2022-12-17T22:44:30.354Z,20.90
2022-12-17T22:44:43.580Z,22.52
2022-12-17T22:46:52.857Z,21.30
2022-12-17T22:49:55.485Z,23.00
2022-12-17T22:52:58.601Z,22.13
2022-12-17T22:56:13.415Z,21.67
2022-12-17T22:59:22.652Z,21.25
2022-12-17T23:02:25.342Z,20.38
2022-12-17T23:05:28.959Z,23.17
2022-12-17T23:08:31.727Z,22.73
2022-12-17T23:11:34.683Z,21.35
2022-12-17T23:14:37.273Z,23.45
2022-12-17T23:17:39.751Z,22.15
2022-12-17T23:20:42.343Z,20.75
2022-12-17T23:23:45.174Z,23.77
2022-12-17T23:26:48.322Z,21.30
2022-12-17T23:29:51.206Z,21.85
2022-12-17T23:32:53.880Z,22.77
2022-12-17T23:36:08.191Z,22.48
2022-12-17T23:39:11.258Z,21.53
2022-12-17T23:42:14.568Z,21.55
2022-12-17T23:45:17.269Z,21.77
2022-12-17T23:48:19.868Z,21.27
2022-12-17T23:51:24.252Z,21.05
2022-12-17T23:54:26.863Z,22.20
2022-12-17T23:57:29.376Z,21.30
